createdAt,value
2017-06-19T19:15:05.059Z,100392.34
2017-06-19T19:17:32.541Z,100390.73
2017-06-19T19:20:01.161Z,100394.03
2017-06-19T19:34:01.536Z,100448.45
2017-06-19T19:36:29.477Z,100447.37
2017-06-19T19:38:56.917Z,100451.41
2017-06-19T19:41:24.666Z,100452.12
2017-06-19T19:43:52.498Z,100450.83
2017-06-19T19:46:20.263Z,100450.69
2017-06-19T19:48:48.428Z,100449.09
2017-06-19T19:51:16.075Z,100449.72
2017-06-19T19:53:43.494Z,100446.98
2017-06-19T19:56:10.955Z,100456.31
2017-06-19T19:58:42.193Z,100460.69
2017-06-19T20:01:10.070Z,100454.88
2017-06-19T20:03:38.279Z,100453.23
2017-06-19T20:06:05.712Z,100457.65
2017-06-19T20:08:33.130Z,100461.36
2017-06-19T20:11:00.561Z,100463.87
2017-06-19T20:13:28.183Z,100465.30
2017-06-19T20:15:56.171Z,100467.42
2017-06-19T20:18:23.582Z,100472.03
2017-06-19T20:20:51.043Z,100471.77
2017-06-19T20:23:18.665Z,100473.39
2017-06-19T20:25:46.071Z,100467.02
2017-06-19T20:28:13.634Z,100470.02
2017-06-19T20:30:41.496Z,100468.73
2017-06-19T20:33:09.152Z,100467.41
2017-06-19T20:35:37.174Z,100458.23
2017-06-19T20:38:04.587Z,100462.72
2017-06-19T20:40:32.377Z,100460.28
2017-06-19T20:43:00.147Z,100464.59
2017-06-19T20:45:27.610Z,100464.66
2017-06-19T20:47:55.506Z,100465.21
2017-06-19T20:50:24.350Z,100467.36
2017-06-19T20:52:51.834Z,100464.72
2017-06-19T20:55:21.770Z,100463.89
2017-06-19T20:57:49.207Z,100463.68
2017-06-19T21:00:16.626Z,100472.05
2017-06-19T21:02:44.071Z,100469.48
2017-06-19T21:05:11.504Z,100469.59
2017-06-19T21:07:38.921Z,100467.22
2017-06-19T21:10:06.681Z,100464.62
2017-06-19T21:12:34.103Z,100467.19
2017-06-19T21:15:01.530Z,100465.72
2017-06-19T21:17:29.171Z,100460.31
2017-06-19T21:19:56.589Z,100457.08
2017-06-19T21:22:24.487Z,100464.59
2017-06-19T21:24:51.930Z,100461.54
